sensor_id;sensor_type;location;lat;lon;timestamp;P1;durP1;ratioP1;P2;durP2;ratioP2
84794;SDS011;75026;49.184;16.564;2024-01-10T00:00:22;18.25;;;9.88;;
84794;SDS011;75026;49.184;16.564;2024-01-10T00:03:43;19.58;;;9.75;;
84794;SDS011;75026;49.184;16.564;2024-01-10T00:06:45;17.63;;;9.50;;
84794;SDS011;75026;49.184;16.564;2024-01-10T00:09:46;19.70;;;9.70;;
84794;SDS011;75026;49.184;16.564;2024-01-10T00:12:47;15.73;;;9.00;;
84794;SDS011;75026;49.184;16.564;2024-01-10T00:15:48;17.55;;;9.10;;
84794;SDS011;75026;49.184;16.564;2024-01-10T00:18:49;19.05;;;9.65;;
84794;SDS011;75026;49.184;16.564;2024-01-10T00:21:50;21.45;;;9.85;;
84794;SDS011;75026;49.184;16.564;2024-01-10T00:24:51;16.40;;;9.57;;
84794;SDS011;75026;49.184;16.564;2024-01-10T00:27:52;19.45;;;9.65;;
84794;SDS011;75026;49.184;16.564;2024-01-10T00:30:52;16.45;;;9.32;;
84794;SDS011;75026;49.184;16.564;2024-01-10T00:33:53;18.65;;;9.73;;
84794;SDS011;75026;49.184;16.564;2024-01-10T00:36:54;17.42;;;9.40;;
84794;SDS011;75026;49.184;16.564;2024-01-10T00:39:54;16.15;;;8.95;;
84794;SDS011;75026;49.184;16.564;2024-01-10T00:42:55;17.60;;;9.18;;
84794;SDS011;75026;49.184;16.564;2024-01-10T00:45:56;16.98;;;8.85;;
84794;SDS011;75026;49.184;16.564;2024-01-10T00:48:57;16.67;;;9.00;;
84794;SDS011;75026;49.184;16.564;2024-01-10T00:51:58;16.90;;;8.63;;
84794;SDS011;75026;49.184;16.564;2024-01-10T00:54:58;16.00;;;9.13;;
84794;SDS011;75026;49.184;16.564;2024-01-10T00:57:59;16.83;;;9.02;;
84794;SDS011;75026;49.184;16.564;2024-01-10T01:00:59;16.33;;;9.00;;
84794;SDS011;75026;49.184;16.564;2024-01-10T01:04:00;16.10;;;8.68;;
84794;SDS011;75026;49.184;16.564;2024-01-10T01:07:01;15.07;;;8.55;;
84794;SDS011;75026;49.184;16.564;2024-01-10T01:10:02;17.77;;;9.38;;
84794;SDS011;75026;49.184;16.564;2024-01-10T01:13:03;16.08;;;9.20;;
84794;SDS011;75026;49.184;16.564;2024-01-10T01:16:04;16.00;;;8.88;;
84794;SDS011;75026;49.184;16.564;2024-01-10T01:19:05;18.88;;;8.80;;
84794;SDS011;75026;49.184;16.564;2024-01-10T01:22:06;18.00;;;8.77;;
84794;SDS011;75026;49.184;16.564;2024-01-10T01:25:06;16.48;;;8.40;;
84794;SDS011;75026;49.184;16.564;2024-01-10T01:28:08;16.30;;;8.35;;
84794;SDS011;75026;49.184;16.564;2024-01-10T01:31:08;17.77;;;8.68;;
84794;SDS011;75026;49.184;16.564;2024-01-10T01:34:09;17.48;;;8.85;;
84794;SDS011;75026;49.184;16.564;2024-01-10T01:37:10;14.60;;;8.35;;
84794;SDS011;75026;49.184;16.564;2024-01-10T01:40:11;16.10;;;8.88;;
84794;SDS011;75026;49.184;16.564;2024-01-10T01:46:39;15.02;;;8.00;;
84794;SDS011;75026;49.184;16.564;2024-01-10T01:49:41;16.35;;;8.30;;
84794;SDS011;75026;49.184;16.564;2024-01-10T01:52:43;15.85;;;7.95;;
84794;SDS011;75026;49.184;16.564;2024-01-10T01:55:44;15.73;;;8.50;;
84794;SDS011;75026;49.184;16.564;2024-01-10T01:58:46;16.35;;;8.02;;
84794;SDS011;75026;49.184;16.564;2024-01-10T02:01:51;15.35;;;8.27;;
84794;SDS011;75026;49.184;16.564;2024-01-10T02:04:54;15.20;;;8.38;;
84794;SDS011;75026;49.184;16.564;2024-01-10T02:07:55;14.55;;;8.13;;
84794;SDS011;75026;49.184;16.564;2024-01-10T02:10:56;14.65;;;8.50;;
84794;SDS011;75026;49.184;16.564;2024-01-10T02:13:57;14.57;;;8.13;;
84794;SDS011;75026;49.184;16.564;2024-01-10T02:16:58;14.30;;;7.82;;
84794;SDS011;75026;49.184;16.564;2024-01-10T02:20:09;13.65;;;8.00;;
84794;SDS011;75026;49.184;16.564;2024-01-10T02:23:13;15.25;;;7.93;;
84794;SDS011;75026;49.184;16.564;2024-01-10T02:26:14;16.30;;;7.80;;
84794;SDS011;75026;49.184;16.564;2024-01-10T02:29:16;14.68;;;7.47;;
84794;SDS011;75026;49.184;16.564;2024-01-10T02:32:17;12.75;;;7.50;;
84794;SDS011;75026;49.184;16.564;2024-01-10T02:35:18;15.70;;;7.90;;
84794;SDS011;75026;49.184;16.564;2024-01-10T02:38:18;15.15;;;8.05;;
84794;SDS011;75026;49.184;16.564;2024-01-10T02:41:21;15.25;;;7.78;;
84794;SDS011;75026;49.184;16.564;2024-01-10T02:44:22;13.15;;;7.40;;
84794;SDS011;75026;49.184;16.564;2024-01-10T02:47:23;16.20;;;7.97;;
84794;SDS011;75026;49.184;16.564;2024-01-10T02:50:24;13.52;;;7.93;;
84794;SDS011;75026;49.184;16.564;2024-01-10T02:53:25;14.77;;;7.90;;
84794;SDS011;75026;49.184;16.564;2024-01-10T02:56:25;14.98;;;8.05;;
84794;SDS011;75026;49.184;16.564;2024-01-10T02:59:26;13.43;;;7.63;;
84794;SDS011;75026;49.184;16.564;2024-01-10T03:02:27;14.57;;;7.25;;
84794;SDS011;75026;49.184;16.564;2024-01-10T03:05:28;14.57;;;7.40;;
84794;SDS011;75026;49.184;16.564;2024-01-10T03:08:28;14.48;;;7.55;;
84794;SDS011;75026;49.184;16.564;2024-01-10T03:11:29;13.70;;;6.97;;
84794;SDS011;75026;49.184;16.564;2024-01-10T03:14:31;12.45;;;6.78;;
84794;SDS011;75026;49.184;16.564;2024-01-10T03:20:36;15.95;;;8.15;;
84794;SDS011;75026;49.184;16.564;2024-01-10T03:23:36;13.70;;;7.40;;
84794;SDS011;75026;49.184;16.564;2024-01-10T03:26:37;13.27;;;7.30;;
84794;SDS011;75026;49.184;16.564;2024-01-10T03:29:38;15.18;;;7.18;;
84794;SDS011;75026;49.184;16.564;2024-01-10T03:32:38;14.80;;;7.30;;
84794;SDS011;75026;49.184;16.564;2024-01-10T03:35:40;13.10;;;7.07;;
84794;SDS011;75026;49.184;16.564;2024-01-10T03:38:42;12.95;;;6.97;;
84794;SDS011;75026;49.184;16.564;2024-01-10T03:41:43;12.32;;;6.60;;
84794;SDS011;75026;49.184;16.564;2024-01-10T03:44:44;12.85;;;7.22;;
84794;SDS011;75026;49.184;16.564;2024-01-10T03:47:44;13.00;;;7.47;;
84794;SDS011;75026;49.184;16.564;2024-01-10T03:50:46;12.40;;;6.90;;
84794;SDS011;75026;49.184;16.564;2024-01-10T03:53:47;12.68;;;7.03;;
84794;SDS011;75026;49.184;16.564;2024-01-10T03:56:49;13.18;;;6.90;;
84794;SDS011;75026;49.184;16.564;2024-01-10T03:59:50;14.18;;;7.30;;
84794;SDS011;75026;49.184;16.564;2024-01-10T04:02:50;13.43;;;6.70;;
84794;SDS011;75026;49.184;16.564;2024-01-10T04:05:51;12.32;;;7.15;;
84794;SDS011;75026;49.184;16.564;2024-01-10T04:08:52;10.82;;;6.40;;
84794;SDS011;75026;49.184;16.564;2024-01-10T04:11:53;13.13;;;6.68;;
84794;SDS011;75026;49.184;16.564;2024-01-10T04:14:53;12.68;;;6.65;;
84794;SDS011;75026;49.184;16.564;2024-01-10T04:17:54;12.57;;;6.65;;
84794;SDS011;75026;49.184;16.564;2024-01-10T04:20:55;11.75;;;7.13;;
84794;SDS011;75026;49.184;16.564;2024-01-10T04:23:56;12.48;;;6.35;;
84794;SDS011;75026;49.184;16.564;2024-01-10T04:26:56;12.77;;;6.53;;
84794;SDS011;75026;49.184;16.564;2024-01-10T04:29:57;11.82;;;6.60;;
84794;SDS011;75026;49.184;16.564;2024-01-10T04:32:57;12.18;;;6.88;;
84794;SDS011;75026;49.184;16.564;2024-01-10T04:35:58;13.43;;;6.65;;
84794;SDS011;75026;49.184;16.564;2024-01-10T04:39:00;13.18;;;6.38;;
84794;SDS011;75026;49.184;16.564;2024-01-10T04:42:01;12.13;;;6.35;;
84794;SDS011;75026;49.184;16.564;2024-01-10T04:45:02;11.00;;;6.53;;
84794;SDS011;75026;49.184;16.564;2024-01-10T04:48:03;13.20;;;6.68;;
84794;SDS011;75026;49.184;16.564;2024-01-10T04:51:04;12.07;;;6.80;;
84794;SDS011;75026;49.184;16.564;2024-01-10T04:54:05;12.15;;;6.82;;
84794;SDS011;75026;49.184;16.564;2024-01-10T04:57:06;11.85;;;6.63;;
84794;SDS011;75026;49.184;16.564;2024-01-10T05:00:08;9.95;;;6.18;;
84794;SDS011;75026;49.184;16.564;2024-01-10T05:03:08;11.55;;;6.38;;
84794;SDS011;75026;49.184;16.564;2024-01-10T05:06:09;12.32;;;6.10;;
84794;SDS011;75026;49.184;16.564;2024-01-10T05:09:11;12.70;;;6.45;;
84794;SDS011;75026;49.184;16.564;2024-01-10T05:12:13;11.10;;;6.63;;
84794;SDS011;75026;49.184;16.564;2024-01-10T05:15:13;13.00;;;6.63;;
84794;SDS011;75026;49.184;16.564;2024-01-10T05:18:15;10.55;;;5.90;;
84794;SDS011;75026;49.184;16.564;2024-01-10T05:21:17;12.60;;;6.70;;
84794;SDS011;75026;49.184;16.564;2024-01-10T05:24:18;11.82;;;6.50;;
84794;SDS011;75026;49.184;16.564;2024-01-10T05:27:19;10.80;;;6.20;;
84794;SDS011;75026;49.184;16.564;2024-01-10T05:30:20;12.82;;;6.80;;
84794;SDS011;75026;49.184;16.564;2024-01-10T05:33:21;11.00;;;6.20;;
84794;SDS011;75026;49.184;16.564;2024-01-10T05:36:22;12.30;;;6.40;;
84794;SDS011;75026;49.184;16.564;2024-01-10T05:39:23;12.68;;;6.80;;
84794;SDS011;75026;49.184;16.564;2024-01-10T05:42:24;17.92;;;6.68;;
84794;SDS011;75026;49.184;16.564;2024-01-10T05:45:25;12.10;;;6.40;;
84794;SDS011;75026;49.184;16.564;2024-01-10T05:48:26;10.73;;;6.40;;
84794;SDS011;75026;49.184;16.564;2024-01-10T05:51:26;11.73;;;6.32;;
84794;SDS011;75026;49.184;16.564;2024-01-10T05:54:27;12.90;;;6.72;;
84794;SDS011;75026;49.184;16.564;2024-01-10T05:57:28;12.38;;;6.53;;
84794;SDS011;75026;49.184;16.564;2024-01-10T06:00:29;12.55;;;6.70;;
84794;SDS011;75026;49.184;16.564;2024-01-10T06:03:29;12.70;;;6.85;;
84794;SDS011;75026;49.184;16.564;2024-01-10T06:06:30;11.32;;;6.50;;
84794;SDS011;75026;49.184;16.564;2024-01-10T06:09:32;11.88;;;6.40;;
84794;SDS011;75026;49.184;16.564;2024-01-10T06:12:33;10.30;;;6.07;;
84794;SDS011;75026;49.184;16.564;2024-01-10T06:15:33;11.45;;;6.30;;
84794;SDS011;75026;49.184;16.564;2024-01-10T06:18:34;10.98;;;6.38;;
84794;SDS011;75026;49.184;16.564;2024-01-10T06:21:35;12.90;;;6.40;;
84794;SDS011;75026;49.184;16.564;2024-01-10T06:24:36;12.05;;;6.20;;
84794;SDS011;75026;49.184;16.564;2024-01-10T06:27:38;12.35;;;6.25;;
84794;SDS011;75026;49.184;16.564;2024-01-10T06:30:39;12.32;;;6.25;;
84794;SDS011;75026;49.184;16.564;2024-01-10T06:33:40;10.98;;;6.05;;
84794;SDS011;75026;49.184;16.564;2024-01-10T06:36:41;11.38;;;6.28;;
84794;SDS011;75026;49.184;16.564;2024-01-10T06:39:42;11.90;;;6.18;;
84794;SDS011;75026;49.184;16.564;2024-01-10T06:42:44;11.75;;;5.97;;
84794;SDS011;75026;49.184;16.564;2024-01-10T06:45:45;10.68;;;5.85;;
84794;SDS011;75026;49.184;16.564;2024-01-10T06:48:46;11.98;;;6.20;;
84794;SDS011;75026;49.184;16.564;2024-01-10T06:51:47;10.40;;;6.10;;
84794;SDS011;75026;49.184;16.564;2024-01-10T06:54:48;10.48;;;6.18;;
84794;SDS011;75026;49.184;16.564;2024-01-10T06:57:49;10.27;;;5.90;;
84794;SDS011;75026;49.184;16.564;2024-01-10T07:00:53;10.13;;;5.97;;
84794;SDS011;75026;49.184;16.564;2024-01-10T07:03:54;12.48;;;6.03;;
84794;SDS011;75026;49.184;16.564;2024-01-10T07:06:55;11.05;;;5.90;;
84794;SDS011;75026;49.184;16.564;2024-01-10T07:09:55;11.20;;;5.80;;
84794;SDS011;75026;49.184;16.564;2024-01-10T07:12:56;12.38;;;6.32;;
84794;SDS011;75026;49.184;16.564;2024-01-10T07:15:57;13.82;;;6.18;;
84794;SDS011;75026;49.184;16.564;2024-01-10T07:18:58;11.38;;;6.28;;
84794;SDS011;75026;49.184;16.564;2024-01-10T07:22:00;11.55;;;5.28;;
84794;SDS011;75026;49.184;16.564;2024-01-10T07:25:01;11.73;;;5.88;;
84794;SDS011;75026;49.184;16.564;2024-01-10T07:28:02;11.10;;;5.57;;
84794;SDS011;75026;49.184;16.564;2024-01-10T07:31:03;11.10;;;5.95;;
84794;SDS011;75026;49.184;16.564;2024-01-10T07:34:06;12.23;;;5.75;;
84794;SDS011;75026;49.184;16.564;2024-01-10T07:37:07;11.57;;;5.70;;
84794;SDS011;75026;49.184;16.564;2024-01-10T07:40:09;13.82;;;6.15;;
84794;SDS011;75026;49.184;16.564;2024-01-10T07:43:11;11.00;;;5.45;;
84794;SDS011;75026;49.184;16.564;2024-01-10T07:46:12;11.30;;;5.88;;
84794;SDS011;75026;49.184;16.564;2024-01-10T07:49:12;10.07;;;5.18;;
84794;SDS011;75026;49.184;16.564;2024-01-10T07:52:13;13.95;;;5.35;;
84794;SDS011;75026;49.184;16.564;2024-01-10T07:55:17;11.45;;;5.38;;
84794;SDS011;75026;49.184;16.564;2024-01-10T07:58:18;10.57;;;5.32;;
84794;SDS011;75026;49.184;16.564;2024-01-10T08:01:18;9.80;;;5.30;;
84794;SDS011;75026;49.184;16.564;2024-01-10T08:04:19;10.77;;;5.60;;
84794;SDS011;75026;49.184;16.564;2024-01-10T08:07:20;12.35;;;5.68;;
84794;SDS011;75026;49.184;16.564;2024-01-10T08:10:21;12.02;;;5.47;;
84794;SDS011;75026;49.184;16.564;2024-01-10T08:13:21;21.33;;;6.75;;
84794;SDS011;75026;49.184;16.564;2024-01-10T08:16:22;69.97;;;12.05;;
84794;SDS011;75026;49.184;16.564;2024-01-10T08:19:26;46.10;;;10.15;;
84794;SDS011;75026;49.184;16.564;2024-01-10T08:22:27;41.03;;;8.52;;
84794;SDS011;75026;49.184;16.564;2024-01-10T08:25:28;36.40;;;8.63;;
84794;SDS011;75026;49.184;16.564;2024-01-10T08:28:29;49.15;;;9.15;;
84794;SDS011;75026;49.184;16.564;2024-01-10T08:31:30;32.25;;;8.25;;
84794;SDS011;75026;49.184;16.564;2024-01-10T08:34:32;37.75;;;8.30;;
84794;SDS011;75026;49.184;16.564;2024-01-10T08:37:33;36.47;;;9.18;;
84794;SDS011;75026;49.184;16.564;2024-01-10T08:40:34;40.58;;;8.77;;
84794;SDS011;75026;49.184;16.564;2024-01-10T08:43:35;35.95;;;8.48;;
84794;SDS011;75026;49.184;16.564;2024-01-10T08:46:36;33.65;;;8.45;;
84794;SDS011;75026;49.184;16.564;2024-01-10T08:49:37;36.10;;;8.20;;
84794;SDS011;75026;49.184;16.564;2024-01-10T08:52:38;32.92;;;7.78;;
84794;SDS011;75026;49.184;16.564;2024-01-10T08:55:39;30.63;;;9.13;;
84794;SDS011;75026;49.184;16.564;2024-01-10T08:58:40;27.77;;;8.02;;
84794;SDS011;75026;49.184;16.564;2024-01-10T09:01:40;25.70;;;7.43;;
84794;SDS011;75026;49.184;16.564;2024-01-10T09:04:42;24.02;;;7.88;;
84794;SDS011;75026;49.184;16.564;2024-01-10T09:07:43;22.92;;;7.90;;
84794;SDS011;75026;49.184;16.564;2024-01-10T09:10:43;28.17;;;7.85;;
84794;SDS011;75026;49.184;16.564;2024-01-10T09:13:44;23.55;;;7.80;;
84794;SDS011;75026;49.184;16.564;2024-01-10T09:16:45;26.25;;;7.60;;
84794;SDS011;75026;49.184;16.564;2024-01-10T09:19:46;29.58;;;7.75;;
84794;SDS011;75026;49.184;16.564;2024-01-10T09:22:46;25.23;;;8.18;;
84794;SDS011;75026;49.184;16.564;2024-01-10T09:25:47;30.13;;;7.60;;
84794;SDS011;75026;49.184;16.564;2024-01-10T09:28:48;25.23;;;7.05;;
84794;SDS011;75026;49.184;16.564;2024-01-10T09:31:49;23.95;;;7.55;;
84794;SDS011;75026;49.184;16.564;2024-01-10T09:34:50;20.80;;;7.50;;
84794;SDS011;75026;49.184;16.564;2024-01-10T09:37:51;26.67;;;7.32;;
84794;SDS011;75026;49.184;16.564;2024-01-10T09:40:55;21.15;;;7.35;;
84794;SDS011;75026;49.184;16.564;2024-01-10T09:44:02;23.38;;;7.43;;
84794;SDS011;75026;49.184;16.564;2024-01-10T09:47:04;21.75;;;6.88;;
84794;SDS011;75026;49.184;16.564;2024-01-10T09:50:05;23.30;;;7.45;;
84794;SDS011;75026;49.184;16.564;2024-01-10T09:53:07;21.83;;;7.05;;
84794;SDS011;75026;49.184;16.564;2024-01-10T09:56:16;24.02;;;6.97;;
84794;SDS011;75026;49.184;16.564;2024-01-10T09:59:17;19.40;;;7.22;;
84794;SDS011;75026;49.184;16.564;2024-01-10T10:02:19;21.17;;;7.03;;
84794;SDS011;75026;49.184;16.564;2024-01-10T10:05:23;20.02;;;6.38;;
84794;SDS011;75026;49.184;16.564;2024-01-10T10:08:24;20.30;;;7.13;;
84794;SDS011;75026;49.184;16.564;2024-01-10T10:11:25;19.77;;;6.78;;
84794;SDS011;75026;49.184;16.564;2024-01-10T10:14:28;17.80;;;6.70;;
84794;SDS011;75026;49.184;16.564;2024-01-10T10:17:30;19.13;;;6.65;;
84794;SDS011;75026;49.184;16.564;2024-01-10T10:20:31;23.90;;;6.80;;
84794;SDS011;75026;49.184;16.564;2024-01-10T10:23:39;23.08;;;6.53;;
84794;SDS011;75026;49.184;16.564;2024-01-10T10:26:42;16.17;;;6.13;;
84794;SDS011;75026;49.184;16.564;2024-01-10T10:29:44;19.65;;;6.05;;
84794;SDS011;75026;49.184;16.564;2024-01-10T10:32:44;21.15;;;6.35;;
84794;SDS011;75026;49.184;16.564;2024-01-10T10:35:49;16.70;;;6.50;;
84794;SDS011;75026;49.184;16.564;2024-01-10T10:38:51;14.25;;;6.40;;
84794;SDS011;75026;49.184;16.564;2024-01-10T10:41:52;19.05;;;6.63;;
84794;SDS011;75026;49.184;16.564;2024-01-10T10:44:55;15.57;;;6.15;;
84794;SDS011;75026;49.184;16.564;2024-01-10T10:48:02;17.02;;;6.40;;
84794;SDS011;75026;49.184;16.564;2024-01-10T10:51:04;14.80;;;6.65;;
84794;SDS011;75026;49.184;16.564;2024-01-10T10:54:18;14.02;;;6.13;;
84794;SDS011;75026;49.184;16.564;2024-01-10T10:57:21;15.93;;;6.10;;
84794;SDS011;75026;49.184;16.564;2024-01-10T11:00:22;19.63;;;6.65;;
84794;SDS011;75026;49.184;16.564;2024-01-10T11:03:27;15.23;;;6.32;;
84794;SDS011;75026;49.184;16.564;2024-01-10T11:06:32;13.98;;;5.90;;
84794;SDS011;75026;49.184;16.564;2024-01-10T11:09:34;17.05;;;6.32;;
84794;SDS011;75026;49.184;16.564;2024-01-10T11:16:10;17.42;;;6.40;;
84794;SDS011;75026;49.184;16.564;2024-01-10T11:19:32;17.65;;;6.50;;
84794;SDS011;75026;49.184;16.564;2024-01-10T11:26:08;19.48;;;7.35;;
84794;SDS011;75026;49.184;16.564;2024-01-10T11:29:11;21.33;;;8.37;;
84794;SDS011;75026;49.184;16.564;2024-01-10T11:32:13;18.88;;;9.07;;
84794;SDS011;75026;49.184;16.564;2024-01-10T11:35:19;19.27;;;7.90;;
84794;SDS011;75026;49.184;16.564;2024-01-10T11:38:20;21.90;;;8.15;;
84794;SDS011;75026;49.184;16.564;2024-01-10T11:44:30;19.13;;;8.20;;
84794;SDS011;75026;49.184;16.564;2024-01-10T11:47:32;16.42;;;6.93;;
84794;SDS011;75026;49.184;16.564;2024-01-10T11:50:33;16.83;;;7.28;;
84794;SDS011;75026;49.184;16.564;2024-01-10T11:53:43;16.67;;;6.85;;
84794;SDS011;75026;49.184;16.564;2024-01-10T11:56:47;21.00;;;7.50;;
84794;SDS011;75026;49.184;16.564;2024-01-10T11:59:50;15.30;;;6.80;;
84794;SDS011;75026;49.184;16.564;2024-01-10T12:02:52;13.50;;;6.38;;
84794;SDS011;75026;49.184;16.564;2024-01-10T12:06:03;16.52;;;7.50;;
84794;SDS011;75026;49.184;16.564;2024-01-10T12:09:04;12.68;;;6.25;;
84794;SDS011;75026;49.184;16.564;2024-01-10T12:12:09;16.80;;;6.65;;
84794;SDS011;75026;49.184;16.564;2024-01-10T12:15:11;15.18;;;6.40;;
84794;SDS011;75026;49.184;16.564;2024-01-10T12:18:12;13.07;;;6.40;;
84794;SDS011;75026;49.184;16.564;2024-01-10T12:21:13;13.88;;;6.75;;
84794;SDS011;75026;49.184;16.564;2024-01-10T12:24:14;16.38;;;6.60;;
84794;SDS011;75026;49.184;16.564;2024-01-10T12:27:21;15.48;;;6.20;;
84794;SDS011;75026;49.184;16.564;2024-01-10T12:30:22;13.52;;;6.53;;
84794;SDS011;75026;49.184;16.564;2024-01-10T12:33:22;11.05;;;5.80;;
84794;SDS011;75026;49.184;16.564;2024-01-10T12:36:26;13.95;;;5.88;;
84794;SDS011;75026;49.184;16.564;2024-01-10T12:39:27;11.88;;;5.75;;
84794;SDS011;75026;49.184;16.564;2024-01-10T12:42:31;13.10;;;6.45;;
84794;SDS011;75026;49.184;16.564;2024-01-10T12:45:32;12.02;;;6.25;;
84794;SDS011;75026;49.184;16.564;2024-01-10T12:48:33;12.63;;;5.93;;
84794;SDS011;75026;49.184;16.564;2024-01-10T12:51:38;13.85;;;6.57;;
84794;SDS011;75026;49.184;16.564;2024-01-10T12:54:39;12.48;;;5.97;;
84794;SDS011;75026;49.184;16.564;2024-01-10T12:57:40;14.20;;;6.20;;
84794;SDS011;75026;49.184;16.564;2024-01-10T13:00:41;10.15;;;5.85;;
84794;SDS011;75026;49.184;16.564;2024-01-10T13:07:20;12.38;;;5.60;;
84794;SDS011;75026;49.184;16.564;2024-01-10T13:10:21;12.27;;;6.13;;
84794;SDS011;75026;49.184;16.564;2024-01-10T13:13:25;12.82;;;6.07;;
84794;SDS011;75026;49.184;16.564;2024-01-10T13:16:27;11.82;;;5.95;;
84794;SDS011;75026;49.184;16.564;2024-01-10T13:19:28;13.38;;;6.05;;
84794;SDS011;75026;49.184;16.564;2024-01-10T13:22:28;11.13;;;5.50;;
84794;SDS011;75026;49.184;16.564;2024-01-10T13:25:30;15.10;;;6.00;;
84794;SDS011;75026;49.184;16.564;2024-01-10T13:28:31;15.68;;;5.78;;
84794;SDS011;75026;49.184;16.564;2024-01-10T13:31:31;12.75;;;5.75;;
84794;SDS011;75026;49.184;16.564;2024-01-10T13:34:32;14.35;;;6.03;;
84794;SDS011;75026;49.184;16.564;2024-01-10T13:37:33;12.50;;;6.40;;
84794;SDS011;75026;49.184;16.564;2024-01-10T13:40:34;17.40;;;5.70;;
84794;SDS011;75026;49.184;16.564;2024-01-10T13:43:35;12.18;;;5.47;;
84794;SDS011;75026;49.184;16.564;2024-01-10T13:46:36;21.75;;;6.20;;
84794;SDS011;75026;49.184;16.564;2024-01-10T13:49:38;14.45;;;5.15;;
84794;SDS011;75026;49.184;16.564;2024-01-10T13:52:38;15.38;;;5.72;;
84794;SDS011;75026;49.184;16.564;2024-01-10T13:55:39;13.52;;;5.90;;
84794;SDS011;75026;49.184;16.564;2024-01-10T13:58:41;13.00;;;5.55;;
84794;SDS011;75026;49.184;16.564;2024-01-10T14:01:42;12.07;;;5.80;;
84794;SDS011;75026;49.184;16.564;2024-01-10T14:04:43;12.63;;;5.60;;
84794;SDS011;75026;49.184;16.564;2024-01-10T14:07:45;13.35;;;5.60;;
84794;SDS011;75026;49.184;16.564;2024-01-10T14:10:46;12.93;;;5.47;;
84794;SDS011;75026;49.184;16.564;2024-01-10T14:13:48;13.02;;;5.72;;
84794;SDS011;75026;49.184;16.564;2024-01-10T14:16:49;11.98;;;5.30;;
84794;SDS011;75026;49.184;16.564;2024-01-10T14:19:53;15.15;;;5.47;;
84794;SDS011;75026;49.184;16.564;2024-01-10T14:22:53;10.25;;;5.18;;
84794;SDS011;75026;49.184;16.564;2024-01-10T14:25:55;11.00;;;4.90;;
84794;SDS011;75026;49.184;16.564;2024-01-10T14:28:55;10.75;;;4.97;;
84794;SDS011;75026;49.184;16.564;2024-01-10T14:31:57;12.68;;;5.32;;
84794;SDS011;75026;49.184;16.564;2024-01-10T14:34:57;10.85;;;5.75;;
84794;SDS011;75026;49.184;16.564;2024-01-10T14:37:58;13.93;;;5.88;;
84794;SDS011;75026;49.184;16.564;2024-01-10T14:40:59;17.50;;;5.65;;
84794;SDS011;75026;49.184;16.564;2024-01-10T14:44:00;16.65;;;5.75;;
84794;SDS011;75026;49.184;16.564;2024-01-10T14:47:01;13.70;;;6.20;;
84794;SDS011;75026;49.184;16.564;2024-01-10T14:53:47;14.98;;;5.93;;
84794;SDS011;75026;49.184;16.564;2024-01-10T14:56:48;12.70;;;5.35;;
84794;SDS011;75026;49.184;16.564;2024-01-10T14:59:58;11.85;;;5.45;;
84794;SDS011;75026;49.184;16.564;2024-01-10T15:03:00;15.23;;;6.00;;
84794;SDS011;75026;49.184;16.564;2024-01-10T15:06:01;10.52;;;5.22;;
84794;SDS011;75026;49.184;16.564;2024-01-10T15:09:02;11.27;;;5.88;;
84794;SDS011;75026;49.184;16.564;2024-01-10T15:12:06;10.23;;;5.45;;
84794;SDS011;75026;49.184;16.564;2024-01-10T15:15:08;13.15;;;5.60;;
84794;SDS011;75026;49.184;16.564;2024-01-10T15:18:09;12.68;;;5.32;;
84794;SDS011;75026;49.184;16.564;2024-01-10T15:21:09;12.77;;;5.43;;
84794;SDS011;75026;49.184;16.564;2024-01-10T15:24:12;9.40;;;5.07;;
84794;SDS011;75026;49.184;16.564;2024-01-10T15:27:14;10.32;;;5.50;;
84794;SDS011;75026;49.184;16.564;2024-01-10T15:30:26;14.07;;;5.47;;
84794;SDS011;75026;49.184;16.564;2024-01-10T15:33:26;11.18;;;5.28;;
84794;SDS011;75026;49.184;16.564;2024-01-10T15:36:28;9.88;;;5.10;;
84794;SDS011;75026;49.184;16.564;2024-01-10T15:39:29;11.90;;;5.38;;
84794;SDS011;75026;49.184;16.564;2024-01-10T15:42:33;9.70;;;5.22;;
84794;SDS011;75026;49.184;16.564;2024-01-10T15:45:34;10.50;;;5.15;;
84794;SDS011;75026;49.184;16.564;2024-01-10T15:48:35;10.52;;;5.47;;
84794;SDS011;75026;49.184;16.564;2024-01-10T15:51:37;12.60;;;5.65;;
84794;SDS011;75026;49.184;16.564;2024-01-10T15:54:38;10.50;;;5.25;;
84794;SDS011;75026;49.184;16.564;2024-01-10T15:57:39;12.90;;;5.57;;
84794;SDS011;75026;49.184;16.564;2024-01-10T16:00:40;8.57;;;4.85;;
84794;SDS011;75026;49.184;16.564;2024-01-10T16:03:41;9.85;;;4.93;;
84794;SDS011;75026;49.184;16.564;2024-01-10T16:06:43;10.10;;;5.07;;
84794;SDS011;75026;49.184;16.564;2024-01-10T16:09:44;10.90;;;4.50;;
84794;SDS011;75026;49.184;16.564;2024-01-10T16:12:46;9.07;;;4.97;;
84794;SDS011;75026;49.184;16.564;2024-01-10T16:15:53;10.35;;;5.28;;
84794;SDS011;75026;49.184;16.564;2024-01-10T16:18:58;9.55;;;4.95;;
84794;SDS011;75026;49.184;16.564;2024-01-10T16:21:58;8.63;;;4.53;;
84794;SDS011;75026;49.184;16.564;2024-01-10T16:25:00;10.82;;;4.80;;
84794;SDS011;75026;49.184;16.564;2024-01-10T16:28:00;9.10;;;4.95;;
84794;SDS011;75026;49.184;16.564;2024-01-10T16:31:02;8.45;;;4.70;;
84794;SDS011;75026;49.184;16.564;2024-01-10T16:34:15;8.77;;;4.88;;
84794;SDS011;75026;49.184;16.564;2024-01-10T16:37:16;9.73;;;4.88;;
84794;SDS011;75026;49.184;16.564;2024-01-10T16:40:17;11.27;;;5.75;;
84794;SDS011;75026;49.184;16.564;2024-01-10T16:43:18;10.65;;;5.65;;
84794;SDS011;75026;49.184;16.564;2024-01-10T16:46:19;10.00;;;5.72;;
84794;SDS011;75026;49.184;16.564;2024-01-10T16:49:20;9.73;;;4.80;;
84794;SDS011;75026;49.184;16.564;2024-01-10T16:52:21;10.45;;;4.90;;
84794;SDS011;75026;49.184;16.564;2024-01-10T16:55:22;10.68;;;4.95;;
84794;SDS011;75026;49.184;16.564;2024-01-10T16:58:23;8.88;;;4.80;;
84794;SDS011;75026;49.184;16.564;2024-01-10T17:01:26;12.10;;;5.07;;
84794;SDS011;75026;49.184;16.564;2024-01-10T17:04:29;8.15;;;4.70;;
84794;SDS011;75026;49.184;16.564;2024-01-10T17:07:31;9.95;;;5.00;;
84794;SDS011;75026;49.184;16.564;2024-01-10T17:10:31;9.05;;;5.13;;
84794;SDS011;75026;49.184;16.564;2024-01-10T17:13:32;9.82;;;5.30;;
84794;SDS011;75026;49.184;16.564;2024-01-10T17:16:33;9.68;;;5.07;;
84794;SDS011;75026;49.184;16.564;2024-01-10T17:19:44;9.10;;;5.03;;
84794;SDS011;75026;49.184;16.564;2024-01-10T17:22:45;8.25;;;5.05;;
84794;SDS011;75026;49.184;16.564;2024-01-10T17:25:58;8.60;;;4.72;;
84794;SDS011;75026;49.184;16.564;2024-01-10T17:29:00;9.00;;;5.00;;
84794;SDS011;75026;49.184;16.564;2024-01-10T17:32:01;10.60;;;5.07;;
84794;SDS011;75026;49.184;16.564;2024-01-10T17:35:01;9.35;;;4.70;;
84794;SDS011;75026;49.184;16.564;2024-01-10T17:38:03;12.43;;;5.50;;
84794;SDS011;75026;49.184;16.564;2024-01-10T17:41:05;11.00;;;5.63;;
84794;SDS011;75026;49.184;16.564;2024-01-10T17:44:06;13.57;;;5.88;;
84794;SDS011;75026;49.184;16.564;2024-01-10T17:47:06;13.35;;;6.18;;
84794;SDS011;75026;49.184;16.564;2024-01-10T17:50:10;10.07;;;5.82;;
84794;SDS011;75026;49.184;16.564;2024-01-10T17:53:11;13.68;;;6.55;;
84794;SDS011;75026;49.184;16.564;2024-01-10T17:56:12;18.52;;;8.10;;
84794;SDS011;75026;49.184;16.564;2024-01-10T17:59:13;13.13;;;7.57;;
84794;SDS011;75026;49.184;16.564;2024-01-10T18:02:16;13.07;;;6.63;;
84794;SDS011;75026;49.184;16.564;2024-01-10T18:05:19;14.95;;;7.32;;
84794;SDS011;75026;49.184;16.564;2024-01-10T18:08:20;13.30;;;7.03;;